sensor_id;sensor_type;location;lat;lon;timestamp;pressure;altitude;pressure_sealevel;temperature;humidity
19811;BME280;10065;49.632;8.346;2024-02-26T07:55:51;98865.09;;;10.10;81.92
19811;BME280;10065;49.632;8.346;2024-02-26T07:58:50;98862.69;;;10.15;81.63
19811;BME280;10065;49.632;8.346;2024-02-26T08:05:27;98871.41;;;10.24;82.16
19811;BME280;10065;49.632;8.346;2024-02-26T08:08:55;98885.66;;;10.23;81.70
19811;BME280;10065;49.632;8.346;2024-02-26T08:19:30;98896.88;;;10.25;83.69
19811;BME280;10065;49.632;8.346;2024-02-26T08:26:21;98893.50;;;10.31;84.42
19811;BME280;10065;49.632;8.346;2024-02-26T08:29:31;98897.06;;;10.38;84.25
19811;BME280;10065;49.632;8.346;2024-02-26T08:32:00;98908.28;;;10.40;84.04
19811;BME280;10065;49.632;8.346;2024-02-26T08:34:48;98896.31;;;10.44;83.62
19811;BME280;10065;49.632;8.346;2024-02-26T08:37:30;98888.44;;;10.50;83.12
19811;BME280;10065;49.632;8.346;2024-02-26T08:40:04;98894.09;;;10.62;83.11
19811;BME280;10065;49.632;8.346;2024-02-26T08:46:30;98893.00;;;10.92;82.61
19811;BME280;10065;49.632;8.346;2024-02-26T08:49:23;98886.44;;;11.10;82.35
19811;BME280;10065;49.632;8.346;2024-02-26T08:52:40;98895.72;;;11.20;82.29
19811;BME280;10065;49.632;8.346;2024-02-26T08:55:38;98887.19;;;11.25;81.83
19811;BME280;10065;49.632;8.346;2024-02-26T08:58:09;98896.34;;;11.22;81.94
19811;BME280;10065;49.632;8.346;2024-02-26T09:00:41;98889.97;;;11.17;82.25
19811;BME280;10065;49.632;8.346;2024-02-26T09:03:09;98892.72;;;11.09;82.42
19811;BME280;10065;49.632;8.346;2024-02-26T09:05:39;98889.84;;;11.04;82.48
19811;BME280;10065;49.632;8.346;2024-02-26T09:08:10;98887.78;;;10.99;82.57
19811;BME280;10065;49.632;8.346;2024-02-26T09:10:48;98895.28;;;10.96;82.61
19811;BME280;10065;49.632;8.346;2024-02-26T09:13:24;98899.94;;;10.93;82.80
19811;BME280;10065;49.632;8.346;2024-02-26T09:16:25;98908.28;;;10.90;83.33
19811;BME280;10065;49.632;8.346;2024-02-26T09:19:10;98912.94;;;10.88;83.75
19811;BME280;10065;49.632;8.346;2024-02-26T09:21:56;98913.69;;;10.82;84.11
19811;BME280;10065;49.632;8.346;2024-02-26T09:24:33;98913.06;;;10.80;84.72
19811;BME280;10065;49.632;8.346;2024-02-26T09:27:05;98914.91;;;10.80;84.95
19811;BME280;10065;49.632;8.346;2024-02-26T09:29:43;98921.03;;;10.80;85.00
19811;BME280;10065;49.632;8.346;2024-02-26T09:32:25;98925.31;;;10.81;85.00
19811;BME280;10065;49.632;8.346;2024-02-26T09:35:01;98911.94;;;10.89;85.07
19811;BME280;10065;49.632;8.346;2024-02-26T09:37:31;98918.97;;;10.97;84.81
19811;BME280;10065;49.632;8.346;2024-02-26T09:40:04;98923.97;;;11.07;84.48
19811;BME280;10065;49.632;8.346;2024-02-26T09:42:43;98924.19;;;11.12;84.55
19811;BME280;10065;49.632;8.346;2024-02-26T09:45:21;98926.66;;;11.13;84.43
19811;BME280;10065;49.632;8.346;2024-02-26T09:48:21;98925.84;;;11.13;84.88
19811;BME280;10065;49.632;8.346;2024-02-26T09:51:02;98919.72;;;11.12;84.81
19811;BME280;10065;49.632;8.346;2024-02-26T09:53:33;98928.97;;;11.16;84.81
19811;BME280;10065;49.632;8.346;2024-02-26T09:56:07;98941.63;;;11.21;84.26
19811;BME280;10065;49.632;8.346;2024-02-26T09:58:42;98946.31;;;11.19;84.28
19811;BME280;10065;49.632;8.346;2024-02-26T10:01:16;98953.06;;;11.21;83.91
19811;BME280;10065;49.632;8.346;2024-02-26T10:03:57;98956.53;;;11.22;83.52
19811;BME280;10065;49.632;8.346;2024-02-26T10:06:27;98950.06;;;11.24;82.59
19811;BME280;10065;49.632;8.346;2024-02-26T10:09:01;98946.06;;;11.35;81.88
19811;BME280;10065;49.632;8.346;2024-02-26T10:12:19;98947.19;;;11.47;81.08
19811;BME280;10065;49.632;8.346;2024-02-26T10:15:00;98953.56;;;11.53;81.21
19811;BME280;10065;49.632;8.346;2024-02-26T10:17:42;98960.78;;;11.59;80.92
19811;BME280;10065;49.632;8.346;2024-02-26T10:20:17;98959.03;;;11.73;80.37
19811;BME280;10065;49.632;8.346;2024-02-26T10:22:50;98953.25;;;11.84;80.09
19811;BME280;10065;49.632;8.346;2024-02-26T10:25:53;98958.22;;;11.93;79.00
19811;BME280;10065;49.632;8.346;2024-02-26T10:28:49;98950.41;;;12.13;78.53
19811;BME280;10065;49.632;8.346;2024-02-26T10:31:24;98952.50;;;12.24;77.78
19811;BME280;10065;49.632;8.346;2024-02-26T10:34:08;98955.22;;;12.31;77.84
19811;BME280;10065;49.632;8.346;2024-02-26T10:36:45;98949.59;;;12.54;77.29
19811;BME280;10065;49.632;8.346;2024-02-26T10:39:21;98948.69;;;12.81;76.71
19811;BME280;10065;49.632;8.346;2024-02-26T10:41:51;98949.78;;;13.06;75.57
19811;BME280;10065;49.632;8.346;2024-02-26T10:44:22;98955.78;;;13.22;74.89
19811;BME280;10065;49.632;8.346;2024-02-26T10:47:04;98961.75;;;13.30;74.74
19811;BME280;10065;49.632;8.346;2024-02-26T10:49:35;98975.09;;;13.37;74.70
19811;BME280;10065;49.632;8.346;2024-02-26T10:52:06;98965.66;;;13.34;74.12
19811;BME280;10065;49.632;8.346;2024-02-26T10:54:36;98960.34;;;13.34;73.65
19811;BME280;10065;49.632;8.346;2024-02-26T10:57:08;98978.16;;;13.27;73.79
19811;BME280;10065;49.632;8.346;2024-02-26T10:59:39;98970.56;;;13.31;73.88
19811;BME280;10065;49.632;8.346;2024-02-26T11:02:10;98979.59;;;13.43;73.07
19811;BME280;10065;49.632;8.346;2024-02-26T11:04:40;98980.44;;;13.50;72.74
19811;BME280;10065;49.632;8.346;2024-02-26T11:07:14;98977.38;;;13.66;72.48
19811;BME280;10065;49.632;8.346;2024-02-26T11:09:45;98979.22;;;13.85;71.50
19811;BME280;10065;49.632;8.346;2024-02-26T11:12:20;98975.13;;;14.03;70.53
19811;BME280;10065;49.632;8.346;2024-02-26T11:15:03;98974.91;;;14.04;69.02
19811;BME280;10065;49.632;8.346;2024-02-26T11:17:32;98969.38;;;14.12;68.91
19811;BME280;10065;49.632;8.346;2024-02-26T11:20:01;98975.31;;;14.01;68.88
19811;BME280;10065;49.632;8.346;2024-02-26T11:22:34;98983.91;;;13.90;69.98
19811;BME280;10065;49.632;8.346;2024-02-26T11:25:04;98981.69;;;13.87;70.54
19811;BME280;10065;49.632;8.346;2024-02-26T11:27:39;98984.56;;;13.85;70.97
19811;BME280;10065;49.632;8.346;2024-02-26T11:30:10;98993.38;;;13.79;71.30
19811;BME280;10065;49.632;8.346;2024-02-26T11:32:47;98998.91;;;13.78;70.96
19811;BME280;10065;49.632;8.346;2024-02-26T11:35:36;98988.44;;;13.70;71.22
19811;BME280;10065;49.632;8.346;2024-02-26T11:38:27;98987.63;;;13.69;71.27
19811;BME280;10065;49.632;8.346;2024-02-26T11:41:09;98983.75;;;13.72;71.09
19811;BME280;10065;49.632;8.346;2024-02-26T11:44:02;98988.25;;;13.71;71.66
19811;BME280;10065;49.632;8.346;2024-02-26T11:46:39;98990.69;;;13.73;71.16
19811;BME280;10065;49.632;8.346;2024-02-26T11:49:39;98989.06;;;13.91;70.93
19811;BME280;10065;49.632;8.346;2024-02-26T11:52:10;98984.91;;;14.28;70.42
19811;BME280;10065;49.632;8.346;2024-02-26T11:58:20;98988.94;;;14.71;67.49
19811;BME280;10065;49.632;8.346;2024-02-26T12:01:04;98991.78;;;14.82;67.14
19811;BME280;10065;49.632;8.346;2024-02-26T12:04:01;98993.81;;;14.87;67.32
19811;BME280;10065;49.632;8.346;2024-02-26T12:06:30;98998.34;;;14.80;67.09
19811;BME280;10065;49.632;8.346;2024-02-26T12:08:58;99003.34;;;14.63;67.54
19811;BME280;10065;49.632;8.346;2024-02-26T12:11:27;99006.88;;;14.44;67.43
19811;BME280;10065;49.632;8.346;2024-02-26T12:13:57;99004.63;;;14.21;68.12
19811;BME280;10065;49.632;8.346;2024-02-26T12:16:38;99009.56;;;14.04;68.60
19811;BME280;10065;49.632;8.346;2024-02-26T12:19:07;99003.81;;;13.94;69.27
19811;BME280;10065;49.632;8.346;2024-02-26T12:22:23;99000.53;;;13.99;69.78
19811;BME280;10065;49.632;8.346;2024-02-26T12:24:58;99000.53;;;14.12;69.31
19811;BME280;10065;49.632;8.346;2024-02-26T12:27:28;98997.84;;;14.25;68.93
19811;BME280;10065;49.632;8.346;2024-02-26T12:29:57;99005.66;;;14.33;68.58
19811;BME280;10065;49.632;8.346;2024-02-26T12:32:26;99012.19;;;14.37;68.45
19811;BME280;10065;49.632;8.346;2024-02-26T12:34:54;99011.16;;;14.51;68.56
19811;BME280;10065;49.632;8.346;2024-02-26T12:37:22;99011.44;;;15.01;67.34
19811;BME280;10065;49.632;8.346;2024-02-26T12:39:50;99026.00;;;15.43;65.67
19811;BME280;10065;49.632;8.346;2024-02-26T12:42:20;99023.16;;;16.01;63.71
19811;BME280;10065;49.632;8.346;2024-02-26T12:44:49;99020.94;;;16.23;62.74
19811;BME280;10065;49.632;8.346;2024-02-26T12:47:23;99011.69;;;16.00;62.44
19811;BME280;10065;49.632;8.346;2024-02-26T12:49:51;99010.41;;;16.03;62.71
19811;BME280;10065;49.632;8.346;2024-02-26T12:52:22;99010.25;;;18.38;56.41
19811;BME280;10065;49.632;8.346;2024-02-26T12:54:51;99012.56;;;20.40;49.76
19811;BME280;10065;49.632;8.346;2024-02-26T12:57:19;99013.00;;;20.54;48.44
19811;BME280;10065;49.632;8.346;2024-02-26T12:59:47;99017.25;;;19.83;49.77
19811;BME280;10065;49.632;8.346;2024-02-26T13:02:16;99011.25;;;19.07;51.91
19811;BME280;10065;49.632;8.346;2024-02-26T13:04:45;99012.84;;;18.57;53.46
19811;BME280;10065;49.632;8.346;2024-02-26T13:07:14;99017.47;;;18.03;54.35
19811;BME280;10065;49.632;8.346;2024-02-26T13:09:43;99017.34;;;17.56;55.06
19811;BME280;10065;49.632;8.346;2024-02-26T13:12:12;99024.03;;;17.17;55.47
19811;BME280;10065;49.632;8.346;2024-02-26T13:14:40;99034.34;;;16.84;56.43
19811;BME280;10065;49.632;8.346;2024-02-26T13:17:09;99021.88;;;16.53;57.99
19811;BME280;10065;49.632;8.346;2024-02-26T13:19:37;99028.75;;;16.24;58.66
19811;BME280;10065;49.632;8.346;2024-02-26T13:22:20;99035.13;;;15.98;59.84
19811;BME280;10065;49.632;8.346;2024-02-26T13:24:56;99048.22;;;15.75;60.58
19811;BME280;10065;49.632;8.346;2024-02-26T13:27:26;99047.53;;;15.48;61.65
19811;BME280;10065;49.632;8.346;2024-02-26T13:30:05;99052.81;;;15.23;62.58
19811;BME280;10065;49.632;8.346;2024-02-26T13:32:37;99051.47;;;15.01;63.44
19811;BME280;10065;49.632;8.346;2024-02-26T13:35:08;99051.31;;;14.83;63.91
19811;BME280;10065;49.632;8.346;2024-02-26T13:37:40;99052.78;;;14.72;65.27
19811;BME280;10065;49.632;8.346;2024-02-26T13:40:09;99056.28;;;14.66;65.09
19811;BME280;10065;49.632;8.346;2024-02-26T13:42:39;99050.94;;;14.66;65.77
19811;BME280;10065;49.632;8.346;2024-02-26T13:45:10;99052.97;;;14.71;65.70
19811;BME280;10065;49.632;8.346;2024-02-26T13:47:46;99053.38;;;14.81;65.16
19811;BME280;10065;49.632;8.346;2024-02-26T13:50:15;99056.41;;;14.91;65.11
19811;BME280;10065;49.632;8.346;2024-02-26T13:52:52;99058.88;;;14.92;64.15
19811;BME280;10065;49.632;8.346;2024-02-26T13:55:22;99062.78;;;14.90;63.84
19811;BME280;10065;49.632;8.346;2024-02-26T13:57:52;99058.69;;;14.87;63.61
19811;BME280;10065;49.632;8.346;2024-02-26T14:00:24;99064.44;;;14.91;64.02
19811;BME280;10065;49.632;8.346;2024-02-26T14:03:02;99062.84;;;14.77;63.37
19811;BME280;10065;49.632;8.346;2024-02-26T14:05:32;99063.00;;;14.88;63.83
19811;BME280;10065;49.632;8.346;2024-02-26T14:08:02;99070.16;;;15.01;63.21
19811;BME280;10065;49.632;8.346;2024-02-26T14:10:31;99061.09;;;15.09;63.51
19811;BME280;10065;49.632;8.346;2024-02-26T14:12:59;99069.06;;;15.15;63.38
19811;BME280;10065;49.632;8.346;2024-02-26T14:15:27;99072.53;;;15.22;63.05
19811;BME280;10065;49.632;8.346;2024-02-26T14:17:56;99067.78;;;15.24;62.44
19811;BME280;10065;49.632;8.346;2024-02-26T14:20:25;99062.06;;;15.21;62.59
19811;BME280;10065;49.632;8.346;2024-02-26T14:22:53;99062.69;;;15.16;62.57
19811;BME280;10065;49.632;8.346;2024-02-26T14:25:29;99058.81;;;15.12;62.95
19811;BME280;10065;49.632;8.346;2024-02-26T14:27:57;99062.72;;;15.10;62.76
19811;BME280;10065;49.632;8.346;2024-02-26T14:30:40;99071.34;;;15.05;62.43
19811;BME280;10065;49.632;8.346;2024-02-26T14:33:11;99070.75;;;15.03;62.77
19811;BME280;10065;49.632;8.346;2024-02-26T14:35:39;99073.22;;;14.98;62.61
19811;BME280;10065;49.632;8.346;2024-02-26T14:38:07;99077.97;;;14.89;62.00
19811;BME280;10065;49.632;8.346;2024-02-26T14:40:37;99069.38;;;14.81;62.11
19811;BME280;10065;49.632;8.346;2024-02-26T14:43:05;99082.53;;;14.76;62.62
19811;BME280;10065;49.632;8.346;2024-02-26T14:45:36;99073.72;;;14.68;62.91
19811;BME280;10065;49.632;8.346;2024-02-26T14:48:06;99075.59;;;14.48;63.28
19811;BME280;10065;49.632;8.346;2024-02-26T14:50:35;99077.22;;;14.36;63.69
19811;BME280;10065;49.632;8.346;2024-02-26T14:53:10;99077.44;;;14.48;64.62
19811;BME280;10065;49.632;8.346;2024-02-26T14:55:45;99079.69;;;14.31;64.57
19811;BME280;10065;49.632;8.346;2024-02-26T14:58:14;99083.78;;;14.20;64.92
19811;BME280;10065;49.632;8.346;2024-02-26T15:00:42;99073.13;;;14.20;65.16
19811;BME280;10065;49.632;8.346;2024-02-26T15:03:10;99080.09;;;14.21;64.80
19811;BME280;10065;49.632;8.346;2024-02-26T15:05:38;99084.19;;;14.24;64.54
19811;BME280;10065;49.632;8.346;2024-02-26T15:08:09;99080.09;;;14.28;64.76
19811;BME280;10065;49.632;8.346;2024-02-26T15:10:43;99086.66;;;14.32;64.26
19811;BME280;10065;49.632;8.346;2024-02-26T15:13:15;99085.81;;;14.25;64.24
19811;BME280;10065;49.632;8.346;2024-02-26T15:15:45;99085.41;;;14.21;64.61
19811;BME280;10065;49.632;8.346;2024-02-26T15:18:15;99086.44;;;14.20;64.90
19811;BME280;10065;49.632;8.346;2024-02-26T15:20:44;99091.97;;;14.19;64.57
19811;BME280;10065;49.632;8.346;2024-02-26T15:23:14;99093.63;;;14.20;64.45
19811;BME280;10065;49.632;8.346;2024-02-26T15:25:48;99088.69;;;14.17;64.24
19811;BME280;10065;49.632;8.346;2024-02-26T15:28:16;99094.00;;;14.17;64.42
19811;BME280;10065;49.632;8.346;2024-02-26T15:30:45;99098.13;;;14.13;64.63
19811;BME280;10065;49.632;8.346;2024-02-26T15:33:14;99102.22;;;14.09;64.72
19811;BME280;10065;49.632;8.346;2024-02-26T15:35:43;99105.50;;;14.04;64.53
19811;BME280;10065;49.632;8.346;2024-02-26T15:38:12;99107.53;;;14.02;64.72
19811;BME280;10065;49.632;8.346;2024-02-26T15:40:41;99121.50;;;13.98;64.75
19811;BME280;10065;49.632;8.346;2024-02-26T15:43:12;99113.25;;;13.92;65.48
19811;BME280;10065;49.632;8.346;2024-02-26T15:45:46;99121.69;;;13.89;65.33
19811;BME280;10065;49.632;8.346;2024-02-26T15:48:33;99128.22;;;13.80;65.59
19811;BME280;10065;49.632;8.346;2024-02-26T15:51:29;99135.53;;;13.65;64.57
19811;BME280;10065;49.632;8.346;2024-02-26T15:54:22;99136.53;;;13.57;64.78
19811;BME280;10065;49.632;8.346;2024-02-26T15:57:06;99151.22;;;13.47;64.91
19811;BME280;10065;49.632;8.346;2024-02-26T15:59:58;99160.25;;;13.46;65.53
19811;BME280;10065;49.632;8.346;2024-02-26T16:02:30;99154.91;;;13.46;65.90
19811;BME280;10065;49.632;8.346;2024-02-26T16:05:33;99162.91;;;13.46;66.21
19811;BME280;10065;49.632;8.346;2024-02-26T16:08:41;99168.22;;;13.46;66.14
19811;BME280;10065;49.632;8.346;2024-02-26T16:11:28;99167.84;;;13.49;66.66
19811;BME280;10065;49.632;8.346;2024-02-26T16:14:26;99172.97;;;13.50;66.44
19811;BME280;10065;49.632;8.346;2024-02-26T16:17:31;99175.44;;;13.52;66.57
19811;BME280;10065;49.632;8.346;2024-02-26T16:20:20;99175.81;;;13.49;66.91
19811;BME280;10065;49.632;8.346;2024-02-26T16:23:04;99167.44;;;13.45;67.19
19811;BME280;10065;49.632;8.346;2024-02-26T16:25:48;99169.66;;;13.42;67.52
19811;BME280;10065;49.632;8.346;2024-02-26T16:28:32;99172.09;;;13.37;67.81
19811;BME280;10065;49.632;8.346;2024-02-26T16:31:21;99176.16;;;13.33;67.91
19811;BME280;10065;49.632;8.346;2024-02-26T16:41:00;99198.78;;;13.15;68.21
19811;BME280;10065;49.632;8.346;2024-02-26T16:44:03;99203.22;;;13.08;68.70
19811;BME280;10065;49.632;8.346;2024-02-26T16:47:04;99203.78;;;13.04;68.78
19811;BME280;10065;49.632;8.346;2024-02-26T16:49:34;99212.38;;;12.99;69.24
19811;BME280;10065;49.632;8.346;2024-02-26T16:52:02;99211.56;;;12.99;69.62
19811;BME280;10065;49.632;8.346;2024-02-26T16:54:31;99216.59;;;12.94;69.82
19811;BME280;10065;49.632;8.346;2024-02-26T16:57:00;99226.00;;;12.90;69.54
19811;BME280;10065;49.632;8.346;2024-02-26T16:59:30;99227.41;;;12.86;70.04
19811;BME280;10065;49.632;8.346;2024-02-26T17:01:59;99230.84;;;12.79;69.87
19811;BME280;10065;49.632;8.346;2024-02-26T17:04:27;99231.44;;;12.75;69.97
19811;BME280;10065;49.632;8.346;2024-02-26T17:06:55;99241.16;;;12.68;70.20
19811;BME280;10065;49.632;8.346;2024-02-26T17:09:26;99239.09;;;12.63;70.35
19811;BME280;10065;49.632;8.346;2024-02-26T17:19:46;99254.41;;;12.40;70.72
19811;BME280;10065;49.632;8.346;2024-02-26T17:22:45;99268.25;;;12.35;71.00
19811;BME280;10065;49.632;8.346;2024-02-26T17:25:43;99269.03;;;12.29;71.01
19811;BME280;10065;49.632;8.346;2024-02-26T17:28:44;99280.03;;;12.26;71.25
19811;BME280;10065;49.632;8.346;2024-02-26T17:31:49;99281.44;;;12.22;71.29
19811;BME280;10065;49.632;8.346;2024-02-26T17:41:28;99300.38;;;12.19;70.92
19811;BME280;10065;49.632;8.346;2024-02-26T17:44:38;99304.06;;;12.18;71.37
19811;BME280;10065;49.632;8.346;2024-02-26T17:47:35;99306.88;;;12.17;71.51
19811;BME280;10065;49.632;8.346;2024-02-26T17:50:28;99308.91;;;12.15;71.75
19811;BME280;10065;49.632;8.346;2024-02-26T17:53:00;99319.94;;;12.12;71.81
19811;BME280;10065;49.632;8.346;2024-02-26T17:55:59;99324.41;;;12.11;71.75
19811;BME280;10065;49.632;8.346;2024-02-26T18:05:37;99346.38;;;12.05;71.82
19811;BME280;10065;49.632;8.346;2024-02-26T18:08:20;99351.44;;;12.00;72.08
19811;BME280;10065;49.632;8.346;2024-02-26T18:11:18;99359.41;;;12.00;71.93
19811;BME280;10065;49.632;8.346;2024-02-26T18:14:01;99356.94;;;11.98;72.32
19811;BME280;10065;49.632;8.346;2024-02-26T18:16:38;99361.41;;;11.98;71.96
19811;BME280;10065;49.632;8.346;2024-02-26T18:19:36;99366.47;;;11.93;72.00
19811;BME280;10065;49.632;8.346;2024-02-26T18:22:52;99369.13;;;11.93;72.16
19811;BME280;10065;49.632;8.346;2024-02-26T18:25:25;99367.94;;;11.95;72.42
19811;BME280;10065;49.632;8.346;2024-02-26T18:27:55;99377.53;;;11.96;72.13
19811;BME280;10065;49.632;8.346;2024-02-26T18:30:28;99384.31;;;11.99;72.13
19811;BME280;10065;49.632;8.346;2024-02-26T18:33:26;99385.97;;;12.00;71.84
19811;BME280;10065;49.632;8.346;2024-02-26T18:36:07;99387.16;;;11.97;72.04
19811;BME280;10065;49.632;8.346;2024-02-26T18:42:25;99395.34;;;11.96;72.00
19811;BME280;10065;49.632;8.346;2024-02-26T18:45:14;99408.63;;;11.96;72.27
19811;BME280;10065;49.632;8.346;2024-02-26T18:48:15;99406.75;;;11.96;72.31
19811;BME280;10065;49.632;8.346;2024-02-26T18:51:04;99407.59;;;11.97;72.09
19811;BME280;10065;49.632;8.346;2024-02-26T18:53:34;99406.75;;;11.96;72.07
19811;BME280;10065;49.632;8.346;2024-02-26T18:56:04;99411.28;;;11.96;72.03
19811;BME280;10065;49.632;8.346;2024-02-26T18:58:34;99421.91;;;11.96;71.95
19811;BME280;10065;49.632;8.346;2024-02-26T19:01:05;99421.44;;;11.92;71.99
19811;BME280;10065;49.632;8.346;2024-02-26T19:03:44;99427.94;;;11.90;71.97
19811;BME280;10065;49.632;8.346;2024-02-26T19:06:23;99436.91;;;11.89;72.02
19811;BME280;10065;49.632;8.346;2024-02-26T19:08:59;99436.91;;;11.89;71.98
19811;BME280;10065;49.632;8.346;2024-02-26T19:12:09;99441.59;;;11.87;71.79
19811;BME280;10065;49.632;8.346;2024-02-26T19:15:50;99452.00;;;11.88;71.77
19811;BME280;10065;49.632;8.346;2024-02-26T19:18:19;99449.91;;;11.84;71.87
19811;BME280;10065;49.632;8.346;2024-02-26T19:20:51;99456.88;;;11.85;71.71
19811;BME280;10065;49.632;8.346;2024-02-26T19:23:28;99457.22;;;11.82;72.08
19811;BME280;10065;49.632;8.346;2024-02-26T19:26:26;99461.38;;;11.84;72.03
19811;BME280;10065;49.632;8.346;2024-02-26T19:29:10;99465.84;;;11.84;72.21
19811;BME280;10065;49.632;8.346;2024-02-26T19:32:01;99464.84;;;11.85;72.16
19811;BME280;10065;49.632;8.346;2024-02-26T19:34:32;99469.50;;;11.83;72.11
19811;BME280;10065;49.632;8.346;2024-02-26T19:37:29;99463.38;;;11.82;72.27
19811;BME280;10065;49.632;8.346;2024-02-26T19:40:04;99469.50;;;11.83;72.38
19811;BME280;10065;49.632;8.346;2024-02-26T19:42:40;99478.47;;;11.82;72.17
19811;BME280;10065;49.632;8.346;2024-02-26T19:45:14;99478.81;;;11.79;72.41
19811;BME280;10065;49.632;8.346;2024-02-26T19:47:59;99482.88;;;11.75;72.50
19811;BME280;10065;49.632;8.346;2024-02-26T19:50:27;99481.16;;;11.74;72.63
19811;BME280;10065;49.632;8.346;2024-02-26T19:52:55;99493.81;;;11.72;72.58
19811;BME280;10065;49.632;8.346;2024-02-26T19:55:24;99492.81;;;11.73;72.34
19811;BME280;10065;49.632;8.346;2024-02-26T19:57:54;99499.09;;;11.72;72.47
19811;BME280;10065;49.632;8.346;2024-02-26T20:00:34;99500.59;;;11.74;72.55
19811;BME280;10065;49.632;8.346;2024-02-26T20:13:27;99520.34;;;11.72;71.90
19811;BME280;10065;49.632;8.346;2024-02-26T20:16:18;99528.31;;;11.72;72.34
19811;BME280;10065;49.632;8.346;2024-02-26T20:18:50;99533.63;;;11.72;72.47
19811;BME280;10065;49.632;8.346;2024-02-26T20:21:59;99539.94;;;11.70;72.10
19811;BME280;10065;49.632;8.346;2024-02-26T20:24:48;99541.59;;;11.72;72.34
19811;BME280;10065;49.632;8.346;2024-02-26T20:27:45;99550.22;;;11.74;72.39
19811;BME280;10065;49.632;8.346;2024-02-26T20:30:52;99556.53;;;11.73;72.10
19811;BME280;10065;49.632;8.346;2024-02-26T20:33:49;99555.88;;;11.70;72.47
19811;BME280;10065;49.632;8.346;2024-02-26T20:36:45;99562.38;;;11.68;72.51
19811;BME280;10065;49.632;8.346;2024-02-26T20:39:29;99567.22;;;11.64;72.68
19811;BME280;10065;49.632;8.346;2024-02-26T20:41:57;99568.03;;;11.65;73.29
19811;BME280;10065;49.632;8.346;2024-02-26T20:44:25;99577.13;;;11.70;75.15
